Time;durP1;ratioP1;P1;durP2;ratioP2;P2;SDS_P1;SDS_P2;PMS_P1;PMS_P2;Temp;Humidity;BMP_temperature;BMP_pressure;BME280_temperature;BME280_humidity;BME280_pressure;Samples;Min_cycle;Max_cycle;Signal;HPM_P1;HPM_P2
2023/02/09 00:01:30;;;;;;;30.67;23.87;;;-0.80;99.90;;;;;;5113963;28;20797;-70
2023/02/09 00:03:59;;;;;;;32.80;26.33;;;-0.90;99.90;;;;;;5114332;28;20461;-71
2023/02/09 00:06:28;;;;;;;27.20;24.10;;;-0.90;99.90;;;;;;5113927;28;20436;-71
2023/02/09 00:08:57;;;;;;;30.20;25.93;;;-0.90;99.90;;;;;;5113951;28;20455;-71
2023/02/09 00:14:11;;;;;;;27.67;24.67;;;-0.90;99.90;;;;;;5094999;28;20928;-71
2023/02/09 00:16:39;;;;;;;27.43;23.17;;;-0.90;99.90;;;;;;5113714;28;20464;-71
2023/02/09 00:19:08;;;;;;;32.03;25.47;;;-1.00;99.90;;;;;;5095697;28;20464;-70
2023/02/09 00:21:36;;;;;;;28.40;23.73;;;-1.00;99.90;;;;;;5113800;28;20433;-70
2023/02/09 00:24:05;;;;;;;29.90;24.80;;;-1.00;99.90;;;;;;5113981;28;20922;-70
2023/02/09 00:26:35;;;;;;;27.40;23.03;;;-1.00;99.90;;;;;;5113687;28;20925;-70
2023/02/09 00:29:03;;;;;;;29.00;23.33;;;-1.00;99.90;;;;;;5095492;28;20478;-70
2023/02/09 00:31:32;;;;;;;27.07;22.70;;;-1.00;99.90;;;;;;5095422;28;20451;-70
2023/02/09 00:34:01;;;;;;;30.50;25.10;;;-1.10;99.90;;;;;;5095484;28;20440;-70
2023/02/09 00:36:29;;;;;;;27.83;22.93;;;-1.10;99.90;;;;;;5078767;28;20471;-70
2023/02/09 00:38:58;;;;;;;27.17;23.53;;;-1.10;99.90;;;;;;5095322;28;20455;-70
2023/02/09 00:44:11;;;;;;;28.17;22.70;;;-1.20;99.90;;;;;;5113009;28;20463;-70
2023/02/09 00:46:39;;;;;;;26.33;22.87;;;-1.20;99.90;;;;;;5118297;28;20886;-70
2023/02/09 00:49:07;;;;;;;28.00;22.90;;;-1.20;99.90;;;;;;5100013;28;21112;-70
2023/02/09 00:51:35;;;;;;;25.53;21.80;;;-1.20;99.90;;;;;;5118845;28;20446;-70
2023/02/09 00:54:04;;;;;;;29.93;24.33;;;-1.30;99.90;;;;;;5100285;28;20440;-70
2023/02/09 00:56:32;;;;;;;28.27;22.50;;;-1.30;99.90;;;;;;5100450;28;20555;-70
2023/02/09 00:59:01;;;;;;;28.43;23.73;;;-1.30;99.90;;;;;;5100917;28;20467;-69
2023/02/09 01:01:30;;;;;;;25.60;22.20;;;-1.30;99.90;;;;;;5118010;28;20483;-70
2023/02/09 01:03:58;;;;;;;27.80;24.13;;;-1.30;99.90;;;;;;5121375;28;20427;-69
2023/02/09 01:06:28;;;;;;;25.57;21.50;;;-1.30;99.90;;;;;;5123149;28;20806;-69
2023/02/09 01:08:57;;;;;;;26.33;22.20;;;-1.40;99.90;;;;;;5105198;28;20532;-69
2023/02/09 01:11:27;;;;;;;25.20;22.47;;;-1.40;99.90;;;;;;5124410;28;20550;-71
2023/02/09 01:13:56;;;;;;;28.93;25.00;;;-1.40;99.90;;;;;;5123617;28;20442;-69
2023/02/09 01:16:27;;;;;;;29.40;24.77;;;-1.50;99.90;;;;;;5101183;28;20474;-70
2023/02/09 01:18:58;;;;;;;26.73;23.63;;;-1.50;99.90;;;;;;5118346;28;20464;-70
2023/02/09 01:21:26;;;;;;;28.40;22.70;;;-1.50;99.90;;;;;;5100198;28;20542;-70
2023/02/09 01:23:54;;;;;;;27.30;21.90;;;-1.50;99.90;;;;;;5118977;28;20431;-70
2023/02/09 01:26:23;;;;;;;27.27;22.00;;;-1.50;99.90;;;;;;5099088;28;20447;-70
2023/02/09 01:28:53;;;;;;;27.83;23.00;;;-1.60;99.90;;;;;;5098534;28;20462;-70
2023/02/09 01:31:24;;;;;;;26.20;21.73;;;-1.60;99.90;;;;;;5117276;28;20435;-70
2023/02/09 01:33:54;;;;;;;26.60;22.53;;;-1.60;99.90;;;;;;5116898;28;20501;-70
2023/02/09 01:36:23;;;;;;;26.80;21.27;;;-1.60;99.90;;;;;;5116778;28;20466;-70
2023/02/09 01:38:54;;;;;;;27.87;21.07;;;-1.70;99.90;;;;;;5098379;28;20474;-70
2023/02/09 01:41:22;;;;;;;24.50;21.03;;;-1.70;99.90;;;;;;5117002;28;20424;-70
2023/02/09 01:43:54;;;;;;;23.40;19.50;;;-1.70;99.90;;;;;;5116623;28;20434;-70
2023/02/09 01:46:23;;;;;;;21.97;17.80;;;-1.70;99.90;;;;;;5098344;28;20455;-70
2023/02/09 01:48:56;;;;;;;25.40;18.50;;;-1.70;99.90;;;;;;5116976;28;20443;-70
2023/02/09 01:51:26;;;;;;;23.93;17.70;;;-1.70;99.90;;;;;;5098235;28;20539;-70
2023/02/09 01:53:55;;;;;;;19.73;16.20;;;-1.70;99.90;;;;;;5116719;28;20766;-70
2023/02/09 01:56:29;;;;;;;20.20;17.30;;;-1.70;99.90;;;;;;5116430;28;20464;-70
2023/02/09 01:58:58;;;;;;;21.87;17.20;;;-1.70;99.90;;;;;;5098241;28;20459;-70
2023/02/09 02:01:27;;;;;;;20.60;17.13;;;-1.70;99.90;;;;;;5098240;28;20977;-70
2023/02/09 02:03:55;;;;;;;22.53;17.97;;;-1.70;99.90;;;;;;5116695;28;20488;-70
2023/02/09 02:06:23;;;;;;;20.50;16.07;;;-1.70;99.90;;;;;;5097936;28;20455;-70
2023/02/09 02:08:58;;;;;;;19.20;17.10;;;-1.70;99.90;;;;;;5116163;28;20491;-70
2023/02/09 02:11:28;;;;;;;21.93;16.23;;;-1.70;99.90;;;;;;5097889;28;20527;-70
2023/02/09 02:13:57;;;;;;;20.40;16.33;;;-1.70;99.90;;;;;;5096736;28;20848;-70
2023/02/09 02:16:37;;;;;;;22.27;16.53;;;-1.70;99.90;;;;;;5115647;28;20966;-70
2023/02/09 02:19:32;;;;;;;22.23;16.90;;;-1.70;99.90;;;;;;5097611;28;20459;-70
2023/02/09 02:22:48;;;;;;;19.73;15.10;;;-1.70;99.90;;;;;;5097636;28;20496;-70
2023/02/09 02:25:52;;;;;;;20.67;15.83;;;-1.70;99.90;;;;;;5112602;28;20809;-70
2023/02/09 02:28:36;;;;;;;21.17;17.40;;;-1.70;99.90;;;;;;5097355;28;20528;-71
2023/02/09 02:31:43;;;;;;;21.20;16.40;;;-1.70;99.90;;;;;;5116322;28;20477;-70
2023/02/09 02:34:20;;;;;;;20.20;16.90;;;-1.70;99.90;;;;;;5068700;28;20961;-70
2023/02/09 02:36:58;;;;;;;16.87;14.70;;;-1.70;99.90;;;;;;5115829;28;20455;-70
2023/02/09 02:39:33;;;;;;;17.20;14.63;;;-1.70;99.90;;;;;;5115789;28;20455;-70
2023/02/09 02:45:01;;;;;;;20.23;16.20;;;-1.70;99.90;;;;;;5115732;28;20412;-70
2023/02/09 02:47:31;;;;;;;18.83;16.83;;;-1.70;99.90;;;;;;5115717;28;20418;-71
2023/02/09 02:50:07;;;;;;;17.43;14.60;;;-1.70;99.90;;;;;;5096982;28;20481;-71
2023/02/09 02:52:35;;;;;;;17.13;14.20;;;-1.70;99.90;;;;;;5097036;28;20447;-70
2023/02/09 02:55:07;;;;;;;17.27;14.00;;;-1.70;99.90;;;;;;5115223;28;20427;-70
2023/02/09 02:57:40;;;;;;;18.03;14.60;;;-1.70;99.90;;;;;;5096867;28;20462;-70
2023/02/09 03:00:16;;;;;;;16.17;14.43;;;-1.70;99.90;;;;;;5096839;28;20862;-70
2023/02/09 03:02:48;;;;;;;15.97;13.60;;;-1.70;99.90;;;;;;5115429;28;20411;-70
2023/02/09 03:05:21;;;;;;;16.83;14.07;;;-1.70;99.90;;;;;;5115041;28;20420;-70
2023/02/09 03:07:49;;;;;;;16.40;14.57;;;-1.70;99.90;;;;;;5115301;28;20424;-70
2023/02/09 03:10:31;;;;;;;16.80;13.30;;;-1.70;99.90;;;;;;5096579;28;20460;-70
2023/02/09 03:13:08;;;;;;;15.90;13.83;;;-1.70;99.90;;;;;;5114866;28;20411;-70
2023/02/09 03:15:48;;;;;;;15.57;13.60;;;-1.70;99.90;;;;;;5115171;28;20424;-70
2023/02/09 03:18:25;;;;;;;17.93;16.00;;;-1.70;99.90;;;;;;5115166;28;20973;-70
2023/02/09 03:20:58;;;;;;;16.80;13.53;;;-1.70;99.90;;;;;;5115097;28;20422;-70
2023/02/09 03:23:33;;;;;;;17.23;14.13;;;-1.70;99.90;;;;;;5115267;28;20459;-70
2023/02/09 03:26:07;;;;;;;16.37;14.60;;;-1.80;99.90;;;;;;5095981;28;20528;-70
2023/02/09 03:28:38;;;;;;;16.60;13.30;;;-1.80;99.90;;;;;;5114724;28;20473;-70
2023/02/09 03:31:07;;;;;;;18.23;14.80;;;-1.80;99.90;;;;;;5115141;28;20415;-70
2023/02/09 03:33:38;;;;;;;15.73;14.13;;;-1.80;99.90;;;;;;5096249;28;20542;-70
2023/02/09 03:36:14;;;;;;;18.00;15.13;;;-1.80;99.90;;;;;;5114752;28;20887;-70
2023/02/09 03:38:42;;;;;;;18.13;12.90;;;-1.80;99.90;;;;;;5114292;28;20474;-70
2023/02/09 03:41:10;;;;;;;18.73;14.20;;;-1.80;99.90;;;;;;5096027;28;20998;-70
2023/02/09 03:46:24;;;;;;;15.93;13.13;;;-1.80;99.90;;;;;;5114589;28;20419;-70
2023/02/09 03:48:52;;;;;;;15.20;12.97;;;-1.80;99.90;;;;;;5114705;28;20501;-70
2023/02/09 03:51:21;;;;;;;17.30;13.57;;;-1.80;99.90;;;;;;5114748;28;20823;-70
2023/02/09 03:53:49;;;;;;;15.23;12.67;;;-1.90;99.90;;;;;;5114223;28;20427;-70
2023/02/09 03:56:17;;;;;;;15.40;12.80;;;-1.80;99.90;;;;;;5114073;28;20840;-71
2023/02/09 03:58:45;;;;;;;18.30;13.60;;;-1.90;99.90;;;;;;5114227;28;20482;-70
2023/02/09 04:01:13;;;;;;;15.40;13.43;;;-1.80;99.90;;;;;;5114052;28;20423;-70
2023/02/09 04:03:42;;;;;;;15.20;12.70;;;-1.80;99.90;;;;;;5114273;28;20926;-70
2023/02/09 04:06:10;;;;;;;15.53;13.23;;;-1.80;99.90;;;;;;5095672;28;21025;-70
2023/02/09 04:08:41;;;;;;;20.17;16.10;;;-1.80;99.90;;;;;;5114107;28;20467;-70
2023/02/09 04:11:10;;;;;;;13.80;12.10;;;-1.80;99.90;;;;;;5113916;28;20420;-70
2023/02/09 04:13:38;;;;;;;19.20;15.40;;;-1.80;99.90;;;;;;5114111;28;20457;-70
2023/02/09 04:16:06;;;;;;;18.57;14.73;;;-1.80;99.90;;;;;;5114405;28;20754;-70
2023/02/09 04:18:35;;;;;;;20.30;15.93;;;-1.80;99.90;;;;;;5113674;28;20482;-70
2023/02/09 04:21:03;;;;;;;17.50;14.43;;;-1.80;99.90;;;;;;5113708;28;20941;-70
2023/02/09 04:23:31;;;;;;;17.73;13.30;;;-1.80;99.90;;;;;;5114304;28;20440;-71
2023/02/09 04:26:00;;;;;;;22.73;19.37;;;-1.80;99.90;;;;;;5113923;28;20439;-70
2023/02/09 04:28:28;;;;;;;18.50;15.03;;;-1.80;99.90;;;;;;5114016;28;20953;-70
2023/02/09 04:30:57;;;;;;;15.23;12.73;;;-1.70;99.90;;;;;;5095407;28;20843;-70
2023/02/09 04:33:25;;;;;;;14.57;11.60;;;-1.70;99.90;;;;;;5113651;28;20435;-70
2023/02/09 04:35:53;;;;;;;13.37;11.47;;;-1.70;99.90;;;;;;5114120;28;20435;-71
2023/02/09 04:38:22;;;;;;;14.07;12.63;;;-1.70;99.90;;;;;;5115552;28;20490;-70
2023/02/09 04:40:52;;;;;;;14.37;12.57;;;-1.70;99.90;;;;;;5117859;28;20439;-70
2023/02/09 04:43:22;;;;;;;13.40;10.80;;;-1.70;99.90;;;;;;5118312;28;20764;-71
2023/02/09 04:45:50;;;;;;;15.50;12.33;;;-1.70;99.90;;;;;;5118305;28;20896;-70
2023/02/09 04:48:20;;;;;;;13.33;11.93;;;-1.70;99.90;;;;;;5118168;28;20431;-70
2023/02/09 04:50:48;;;;;;;15.27;11.90;;;-1.70;99.90;;;;;;5099586;28;20464;-70
2023/02/09 04:53:17;;;;;;;13.37;11.13;;;-1.70;99.90;;;;;;5117631;28;20431;-71
2023/02/09 04:55:46;;;;;;;15.30;11.20;;;-1.70;99.90;;;;;;5117568;28;20530;-70
2023/02/09 05:01:05;;;;;;;12.63;11.00;;;-1.70;99.90;;;;;;5118058;28;20419;-70
2023/02/09 05:03:33;;;;;;;13.07;11.10;;;-1.70;99.90;;;;;;5118262;28;20786;-70
2023/02/09 05:06:03;;;;;;;14.60;11.27;;;-1.70;99.90;;;;;;5117384;28;20990;-70
2023/02/09 05:08:32;;;;;;;13.93;10.80;;;-1.70;99.90;;;;;;5117213;28;20956;-70
2023/02/09 05:11:00;;;;;;;13.10;11.30;;;-1.60;99.90;;;;;;5117290;28;20434;-71
2023/02/09 05:13:28;;;;;;;13.10;11.70;;;-1.60;99.90;;;;;;5117203;28;20937;-70
2023/02/09 05:15:57;;;;;;;11.57;10.43;;;-1.60;99.90;;;;;;5098907;28;20819;-70
2023/02/09 05:18:26;;;;;;;13.00;10.53;;;-1.60;99.90;;;;;;5116959;28;20468;-71
2023/02/09 05:20:54;;;;;;;14.37;11.07;;;-1.60;99.90;;;;;;5116954;28;20437;-70
2023/02/09 05:23:22;;;;;;;13.53;10.70;;;-1.50;99.90;;;;;;5098742;28;20450;-70
2023/02/09 05:25:51;;;;;;;13.63;12.03;;;-1.50;99.90;;;;;;5116953;28;20427;-70
2023/02/09 05:28:19;;;;;;;14.47;12.40;;;-1.50;99.90;;;;;;5117091;28;20549;-71
2023/02/09 05:30:52;;;;;;;15.60;12.53;;;-1.50;99.90;;;;;;5117246;28;20455;-70
2023/02/09 05:33:20;;;;;;;13.13;10.30;;;-1.50;99.90;;;;;;5116895;28;20444;-70
2023/02/09 05:35:51;;;;;;;15.33;12.63;;;-1.50;99.90;;;;;;5117373;28;20431;-70
2023/02/09 05:38:19;;;;;;;14.73;11.93;;;-1.50;99.90;;;;;;5098409;28;20463;-70
2023/02/09 05:40:47;;;;;;;11.87;10.57;;;-1.40;99.90;;;;;;5116966;28;20438;-70
2023/02/09 05:43:16;;;;;;;13.90;10.73;;;-1.40;99.90;;;;;;5098416;28;20450;-70
2023/02/09 05:45:45;;;;;;;14.23;12.27;;;-1.40;99.90;;;;;;5116615;28;20427;-71
2023/02/09 05:48:13;;;;;;;14.80;12.77;;;-1.40;99.90;;;;;;5116629;28;20434;-70
2023/02/09 05:50:41;;;;;;;13.60;12.10;;;-1.40;99.90;;;;;;5116518;28;20990;-71
2023/02/09 05:53:11;;;;;;;14.20;11.50;;;-1.40;99.90;;;;;;5116495;28;20990;-70
2023/02/09 05:55:42;;;;;;;14.80;11.70;;;-1.30;99.90;;;;;;5098478;28;20975;-70
2023/02/09 05:58:10;;;;;;;14.70;10.80;;;-1.30;99.90;;;;;;5116514;28;20471;-70
2023/02/09 06:00:38;;;;;;;12.70;11.17;;;-1.30;99.90;;;;;;5097929;28;20471;-71
2023/02/09 06:03:06;;;;;;;13.60;11.37;;;-1.20;99.90;;;;;;5116274;28;20450;-71
2023/02/09 06:05:35;;;;;;;14.13;11.87;;;-1.20;99.90;;;;;;5116244;28;20435;-70
2023/02/09 06:08:03;;;;;;;14.00;12.30;;;-1.10;99.90;;;;;;5116761;28;20775;-71
2023/02/09 06:10:32;;;;;;;15.10;12.00;;;-1.10;99.90;;;;;;5116098;28;20455;-71
2023/02/09 06:13:00;;;;;;;14.57;11.70;;;-1.10;99.90;;;;;;5116411;28;20436;-70
2023/02/09 06:15:28;;;;;;;13.03;11.63;;;-1.10;99.90;;;;;;5116088;28;20779;-71
2023/02/09 06:17:57;;;;;;;13.93;11.80;;;-1.00;99.90;;;;;;5097716;28;20946;-71
2023/02/09 06:20:25;;;;;;;15.40;12.50;;;-1.00;99.90;;;;;;5115891;28;20977;-71
2023/02/09 06:22:53;;;;;;;14.17;12.50;;;-1.00;99.90;;;;;;5097914;28;20448;-71
2023/02/09 06:25:21;;;;;;;15.07;12.80;;;-1.00;99.90;;;;;;5116393;28;20480;-71
2023/02/09 06:27:50;;;;;;;15.17;12.90;;;-1.00;99.90;;;;;;5115977;28;20457;-70
2023/02/09 06:30:19;;;;;;;14.87;11.73;;;-0.90;99.90;;;;;;5116303;28;20448;-71
2023/02/09 06:32:47;;;;;;;15.03;12.87;;;-0.90;99.90;;;;;;5097462;28;20447;-71
2023/02/09 06:35:15;;;;;;;15.13;13.00;;;-0.90;99.90;;;;;;5097442;28;20439;-70
2023/02/09 06:37:43;;;;;;;16.30;13.37;;;-0.90;99.90;;;;;;5115620;28;20431;-70
2023/02/09 06:40:12;;;;;;;13.83;12.43;;;-0.90;99.90;;;;;;5097095;28;20479;-70
2023/02/09 06:42:46;;;;;;;15.67;12.23;;;-0.90;99.90;;;;;;5116051;28;20444;-71
2023/02/09 06:45:17;;;;;;;15.83;13.27;;;-0.90;99.90;;;;;;5115819;28;20427;-70
2023/02/09 06:47:45;;;;;;;14.83;12.40;;;-0.90;99.90;;;;;;5097210;28;20442;-70
2023/02/09 06:50:15;;;;;;;17.40;13.00;;;-0.90;99.90;;;;;;5115351;28;20543;-70
2023/02/09 06:52:44;;;;;;;13.73;12.23;;;-0.90;99.90;;;;;;5115425;28;20874;-70
2023/02/09 06:55:12;;;;;;;13.83;12.40;;;-0.90;99.90;;;;;;5115285;28;20449;-70
2023/02/09 06:57:41;;;;;;;16.03;13.00;;;-0.90;99.90;;;;;;5115391;28;20435;-71
2023/02/09 07:00:11;;;;;;;15.80;13.30;;;-0.90;99.90;;;;;;5114460;28;20513;-70
2023/02/09 07:02:41;;;;;;;18.17;13.50;;;-0.90;99.90;;;;;;5115132;28;20414;-71
2023/02/09 07:05:10;;;;;;;15.20;13.60;;;-0.80;99.90;;;;;;5096861;28;20439;-71
2023/02/09 07:07:38;;;;;;;16.53;13.73;;;-0.80;99.90;;;;;;5096940;28;20621;-71
2023/02/09 07:10:09;;;;;;;16.67;12.83;;;-0.80;99.90;;;;;;5114907;28;20969;-71
2023/02/09 07:12:37;;;;;;;15.63;14.00;;;-0.80;99.90;;;;;;5097560;28;20432;-70
2023/02/09 07:15:08;;;;;;;15.60;13.23;;;-0.80;99.90;;;;;;5115182;28;20422;-71
2023/02/09 07:17:36;;;;;;;16.63;13.07;;;-0.80;99.90;;;;;;5115515;28;20453;-71
2023/02/09 07:20:07;;;;;;;15.73;13.47;;;-0.80;99.90;;;;;;5114638;28;20470;-71
2023/02/09 07:22:36;;;;;;;18.03;15.60;;;-0.80;99.90;;;;;;5114700;28;20921;-71
2023/02/09 07:25:04;;;;;;;14.80;12.57;;;-0.80;99.90;;;;;;5115479;28;20779;-70
2023/02/09 07:27:32;;;;;;;16.20;13.27;;;-0.80;99.90;;;;;;5114995;28;20496;-70
2023/02/09 07:30:00;;;;;;;16.80;14.57;;;-0.70;99.90;;;;;;5114807;28;20973;-70
2023/02/09 07:32:28;;;;;;;18.10;14.33;;;-0.70;99.90;;;;;;5096441;28;20439;-70
2023/02/09 07:34:56;;;;;;;16.70;14.20;;;-0.70;99.90;;;;;;5096277;28;20456;-70
2023/02/09 07:37:26;;;;;;;15.67;12.93;;;-0.70;99.90;;;;;;5114769;28;20454;-70
2023/02/09 07:39:54;;;;;;;16.30;13.10;;;-0.70;99.90;;;;;;5114534;28;20475;-71
2023/02/09 07:42:22;;;;;;;15.80;14.00;;;-0.60;99.90;;;;;;5114546;28;20439;-71
2023/02/09 07:44:57;;;;;;;17.87;14.23;;;-0.60;99.90;;;;;;5096109;28;20530;-71
2023/02/09 07:47:25;;;;;;;15.80;14.10;;;-0.60;99.90;;;;;;5114497;28;20809;-71
2023/02/09 07:49:53;;;;;;;16.30;14.07;;;-0.60;99.90;;;;;;5114088;28;20562;-71
2023/02/09 07:52:21;;;;;;;19.60;14.50;;;-0.50;99.90;;;;;;5114116;28;20956;-71
2023/02/09 07:54:51;;;;;;;18.03;16.13;;;-0.50;99.90;;;;;;5114754;28;20443;-70
2023/02/09 07:57:19;;;;;;;16.13;13.47;;;-0.50;99.90;;;;;;5114327;28;20431;-71
2023/02/09 07:59:47;;;;;;;15.67;13.80;;;-0.40;99.90;;;;;;5095702;28;20475;-71
2023/02/09 08:02:18;;;;;;;15.30;13.67;;;-0.40;99.90;;;;;;5114579;28;20785;-71
2023/02/09 08:04:47;;;;;;;15.23;13.73;;;-0.40;99.90;;;;;;5095799;28;20435;-71
2023/02/09 08:07:15;;;;;;;15.30;13.00;;;-0.30;99.90;;;;;;5113887;28;20435;-71
2023/02/09 08:09:45;;;;;;;16.17;14.00;;;-0.30;99.90;;;;;;5113955;28;20535;-71
2023/02/09 08:12:15;;;;;;;16.07;14.07;;;-0.30;99.90;;;;;;5114433;28;20522;-71
2023/02/09 08:14:47;;;;;;;16.33;14.67;;;-0.20;99.90;;;;;;5114663;28;20840;-71
2023/02/09 08:17:23;;;;;;;16.23;14.30;;;-0.20;99.90;;;;;;5114328;28;20415;-71
2023/02/09 08:19:56;;;;;;;18.40;14.70;;;-0.10;99.90;;;;;;5113670;28;20510;-71
2023/02/09 08:22:29;;;;;;;15.60;13.60;;;0.00;99.90;;;;;;5114018;28;20420;-71
2023/02/09 08:24:58;;;;;;;14.70;13.20;;;0.00;99.90;;;;;;5114113;28;20423;-70
2023/02/09 08:27:28;;;;;;;17.27;14.17;;;0.10;99.90;;;;;;5095318;28;20957;-71
2023/02/09 08:29:58;;;;;;;16.27;14.60;;;0.10;99.90;;;;;;5113503;28;20485;-70
2023/02/09 08:32:26;;;;;;;17.10;14.50;;;0.20;99.90;;;;;;5113602;28;20501;-70
2023/02/09 08:34:54;;;;;;;16.03;13.20;;;0.30;99.90;;;;;;5113686;28;20443;-70
2023/02/09 08:37:22;;;;;;;14.47;12.70;;;0.30;99.90;;;;;;5113989;28;20443;-71
2023/02/09 08:39:50;;;;;;;16.90;13.30;;;0.40;99.90;;;;;;5113685;28;20490;-71
2023/02/09 08:42:18;;;;;;;16.73;15.00;;;0.50;99.90;;;;;;5113846;28;20522;-71
2023/02/09 08:44:47;;;;;;;15.77;14.07;;;0.50;99.90;;;;;;5113456;28;20443;-71
2023/02/09 08:47:16;;;;;;;15.43;13.10;;;0.60;99.90;;;;;;5113751;28;20794;-71
2023/02/09 08:49:44;;;;;;;15.43;13.83;;;0.60;99.90;;;;;;5095326;28;20516;-71
2023/02/09 08:52:12;;;;;;;15.63;13.03;;;0.70;99.90;;;;;;5095178;28;20447;-71
2023/02/09 08:54:40;;;;;;;15.30;13.70;;;0.70;99.90;;;;;;5113416;28;20462;-71
2023/02/09 08:57:08;;;;;;;14.63;13.13;;;0.80;99.90;;;;;;5095187;28;20447;-71
2023/02/09 08:59:36;;;;;;;15.87;14.10;;;0.80;99.90;;;;;;5113447;28;20502;-71
2023/02/09 09:02:05;;;;;;;14.67;13.27;;;0.90;99.90;;;;;;5113570;28;20438;-71
2023/02/09 09:04:33;;;;;;;14.77;13.20;;;0.90;99.90;;;;;;5113813;28;20798;-71
2023/02/09 09:07:02;;;;;;;14.73;13.23;;;1.00;99.90;;;;;;5113279;28;20518;-71
2023/02/09 09:09:30;;;;;;;18.03;14.70;;;1.10;99.90;;;;;;5113164;28;20451;-71
2023/02/09 09:11:58;;;;;;;14.80;13.20;;;1.10;99.90;;;;;;5113158;28;20441;-71
2023/02/09 09:14:26;;;;;;;14.73;13.03;;;1.20;99.90;;;;;;5113173;28;20793;-71
2023/02/09 09:16:57;;;;;;;14.23;12.73;;;1.20;99.90;;;;;;5113437;28;20484;-71
2023/02/09 09:19:27;;;;;;;17.93;14.30;;;1.30;99.90;;;;;;5094726;28;21020;-71
2023/02/09 09:21:55;;;;;;;15.83;14.23;;;1.30;99.90;;;;;;5113674;28;20591;-71
2023/02/09 09:24:27;;;;;;;17.23;13.70;;;1.40;99.90;;;;;;5115029;28;20437;-71
2023/02/09 09:26:55;;;;;;;16.83;13.83;;;1.40;99.90;;;;;;5117005;28;20422;-71
2023/02/09 09:29:23;;;;;;;18.33;13.97;;;1.50;99.90;;;;;;5116906;28;20981;-71
2023/02/09 09:31:51;;;;;;;18.13;14.40;;;1.50;99.90;;;;;;5116764;28;20478;-71
2023/02/09 09:34:20;;;;;;;15.03;13.43;;;1.60;99.90;;;;;;5098438;28;20448;-71
2023/02/09 09:36:49;;;;;;;16.93;13.73;;;1.60;99.90;;;;;;5116667;28;20435;-71
2023/02/09 09:39:18;;;;;;;15.27;13.60;;;1.70;99.90;;;;;;5116679;28;20462;-71
2023/02/09 09:41:48;;;;;;;16.60;13.57;;;1.70;99.90;;;;;;5116594;28;20468;-71
2023/02/09 09:44:22;;;;;;;16.33;13.90;;;1.70;99.90;;;;;;5116913;28;20424;-71
2023/02/09 09:46:53;;;;;;;18.10;14.10;;;1.80;99.90;;;;;;5117194;28;20898;-72
2023/02/09 09:49:25;;;;;;;15.37;13.77;;;1.90;99.90;;;;;;5116872;28;20463;-71
2023/02/09 09:51:58;;;;;;;21.83;17.70;;;1.90;99.90;;;;;;5116820;28;20470;-71
2023/02/09 09:54:29;;;;;;;19.93;18.13;;;2.00;99.90;;;;;;5117006;28;20420;-71
2023/02/09 09:56:58;;;;;;;15.93;14.30;;;2.00;99.90;;;;;;5116703;28;20514;-71
2023/02/09 09:59:30;;;;;;;62.80;56.77;;;2.10;99.90;;;;;;5098018;28;20468;-71
2023/02/09 10:02:03;;;;;;;44.70;40.70;;;2.10;99.90;;;;;;5098095;28;20463;-71
2023/02/09 10:04:31;;;;;;;21.40;19.50;;;2.20;99.90;;;;;;5098005;28;20438;-71
2023/02/09 10:07:07;;;;;;;18.10;16.07;;;2.20;99.90;;;;;;5116468;28;20431;-71
2023/02/09 10:09:44;;;;;;;16.30;14.70;;;2.30;99.90;;;;;;5116042;28;20969;-71
2023/02/09 10:12:23;;;;;;;15.40;13.80;;;2.30;99.90;;;;;;5097886;28;20432;-71
2023/02/09 10:14:51;;;;;;;15.60;14.00;;;2.40;99.90;;;;;;5116090;28;20421;-71
2023/02/09 10:17:19;;;;;;;16.73;14.60;;;2.40;99.90;;;;;;5116188;28;20806;-72
2023/02/09 10:20:01;;;;;;;16.60;14.90;;;2.50;99.90;;;;;;5098463;28;20473;-71
2023/02/09 10:22:30;;;;;;;17.50;14.70;;;2.50;99.90;;;;;;5115923;28;20425;-71
2023/02/09 10:24:59;;;;;;;15.30;13.77;;;2.60;99.90;;;;;;5115860;28;20490;-71
2023/02/09 10:27:29;;;;;;;15.63;14.00;;;2.60;99.90;;;;;;5115800;28;20960;-72
2023/02/09 10:30:17;;;;;;;17.60;15.73;;;2.70;99.90;;;;;;5115635;28;20983;-71
2023/02/09 10:32:45;;;;;;;16.03;14.33;;;2.70;99.90;;;;;;5116466;28;20777;-71
2023/02/09 10:35:24;;;;;;;17.47;14.73;;;2.70;99.90;;;;;;5114552;28;20435;-71
2023/02/09 10:37:58;;;;;;;16.17;14.10;;;2.80;99.90;;;;;;5097323;28;20448;-71
2023/02/09 10:40:30;;;;;;;15.70;13.37;;;2.80;99.90;;;;;;5115771;28;20829;-71
2023/02/09 10:43:00;;;;;;;16.30;14.60;;;2.80;99.90;;;;;;5097259;28;21002;-71
2023/02/09 10:45:32;;;;;;;15.97;14.27;;;2.90;99.90;;;;;;5115447;28;20922;-71
2023/02/09 10:48:02;;;;;;;15.40;13.80;;;2.90;99.90;;;;;;5115713;28;20415;-71
2023/02/09 10:50:31;;;;;;;15.50;13.93;;;3.00;99.90;;;;;;5115586;28;20836;-71
2023/02/09 10:53:11;;;;;;;16.67;14.93;;;3.00;99.90;;;;;;5115939;28;20481;-71
2023/02/09 10:55:41;;;;;;;15.40;13.80;;;3.00;99.90;;;;;;5097063;28;20827;-70
2023/02/09 10:58:21;;;;;;;17.10;15.17;;;3.00;99.90;;;;;;5115923;28;20506;-72
2023/02/09 11:00:53;;;;;;;16.80;15.13;;;3.10;99.90;;;;;;5115822;28;20554;-71
2023/02/09 11:03:25;;;;;;;16.00;14.30;;;3.10;99.90;;;;;;5116457;28;20412;-71
2023/02/09 11:06:02;;;;;;;16.83;14.50;;;3.20;99.90;;;;;;5116101;28;20423;-71
2023/02/09 11:08:49;;;;;;;19.03;14.53;;;3.20;99.90;;;;;;5097265;28;20841;-71
2023/02/09 11:11:31;;;;;;;16.20;14.50;;;3.20;99.90;;;;;;5096941;28;20439;-71
2023/02/09 11:14:00;;;;;;;16.90;15.13;;;3.30;99.90;;;;;;5115634;28;20434;-71
2023/02/09 11:16:49;;;;;;;19.03;14.53;;;3.30;99.90;;;;;;5115262;28;20765;-71
2023/02/09 11:19:30;;;;;;;16.80;15.00;;;3.40;99.90;;;;;;5096636;28;20467;-71
2023/02/09 11:22:08;;;;;;;16.80;15.00;;;3.40;99.90;;;;;;5115070;28;20453;-71
2023/02/09 11:24:59;;;;;;;16.70;14.90;;;3.40;99.90;;;;;;5114778;28;20507;-71
2023/02/09 11:27:43;;;;;;;17.10;14.50;;;3.50;99.90;;;;;;5114908;28;20883;-71
2023/02/09 11:30:34;;;;;;;16.50;14.00;;;3.50;99.90;;;;;;5096197;28;21027;-71
2023/02/09 11:33:07;;;;;;;15.33;13.80;;;3.60;99.90;;;;;;5114519;28;20436;-71
2023/02/09 11:35:46;;;;;;;15.00;13.43;;;3.60;99.90;;;;;;5114817;28;20416;-71
2023/02/09 11:38:19;;;;;;;16.27;14.67;;;3.60;99.90;;;;;;5114803;28;20446;-71
2023/02/09 11:40:53;;;;;;;16.57;14.83;;;3.70;99.90;;;;;;5114936;28;20856;-71
2023/02/09 11:43:27;;;;;;;17.20;15.40;;;3.70;99.90;;;;;;5114648;28;20892;-71
2023/02/09 11:45:59;;;;;;;18.90;15.23;;;3.80;99.90;;;;;;5114687;28;20519;-71
2023/02/09 11:48:31;;;;;;;15.67;14.17;;;3.80;99.90;;;;;;5114643;28;20903;-71
2023/02/09 11:51:07;;;;;;;16.47;14.83;;;3.90;99.90;;;;;;5114565;28;20910;-71
2023/02/09 11:53:42;;;;;;;16.70;14.90;;;3.90;99.90;;;;;;5114158;28;20416;-71
2023/02/09 11:56:15;;;;;;;16.87;15.07;;;3.90;99.90;;;;;;5114460;28;20510;-71
2023/02/09 11:58:48;;;;;;;17.37;15.67;;;3.90;99.90;;;;;;5114285;28;20455;-71
2023/02/09 12:01:25;;;;;;;16.97;15.30;;;4.00;99.90;;;;;;5114224;28;20451;-71
2023/02/09 12:04:03;;;;;;;18.83;16.40;;;4.00;99.90;;;;;;5114303;28;20834;-71
2023/02/09 12:06:38;;;;;;;17.20;15.40;;;4.10;99.90;;;;;;5113887;28;20926;-71
2023/02/09 12:09:30;;;;;;;16.57;14.87;;;4.10;99.90;;;;;;5114385;28;20457;-71
2023/02/09 12:12:07;;;;;;;16.43;14.73;;;4.20;99.90;;;;;;5095696;28;20454;-71
2023/02/09 12:14:55;;;;;;;17.27;15.17;;;4.20;99.90;;;;;;5113875;28;20415;-70
2023/02/09 12:17:39;;;;;;;16.57;15.07;;;4.20;99.90;;;;;;5095897;28;20786;-71
2023/02/09 12:20:28;;;;;;;17.07;15.37;;;4.30;99.90;;;;;;5114163;28;20459;-71
2023/02/09 12:23:00;;;;;;;17.07;15.27;;;4.30;99.90;;;;;;5095460;28;20466;-71
2023/02/09 12:25:59;;;;;;;17.37;15.57;;;4.30;99.90;;;;;;5114284;28;20506;-71
2023/02/09 12:28:45;;;;;;;16.50;14.90;;;4.30;99.90;;;;;;5113542;28;20443;-71
2023/02/09 12:31:19;;;;;;;18.37;16.43;;;4.30;99.90;;;;;;5113979;28;20435;-71
2023/02/09 12:34:29;;;;;;;17.93;16.03;;;4.30;99.90;;;;;;5095414;28;20462;-71
2023/02/09 12:37:27;;;;;;;18.10;16.30;;;4.30;99.90;;;;;;5095599;28;20431;-71
2023/02/09 12:40:21;;;;;;;16.93;15.00;;;4.30;99.90;;;;;;5113852;28;20455;-71
2023/02/09 12:43:12;;;;;;;17.80;16.00;;;4.30;99.90;;;;;;5109518;28;20471;-71
2023/02/09 12:45:43;;;;;;;17.23;15.63;;;4.40;99.90;;;;;;5113568;28;20438;-71
2023/02/09 12:48:16;;;;;;;18.00;15.17;;;4.40;99.90;;;;;;5095248;28;20435;-71
2023/02/09 12:50:51;;;;;;;21.40;17.17;;;4.40;99.90;;;;;;5113512;28;20436;-71
2023/02/09 12:53:44;;;;;;;17.10;15.40;;;4.40;99.90;;;;;;5113707;28;20909;-71
2023/02/09 12:56:31;;;;;;;19.63;17.63;;;4.40;99.90;;;;;;5113645;28;20427;-70
2023/02/09 12:59:20;;;;;;;17.77;15.97;;;4.50;99.90;;;;;;5114928;28;20466;-71
2023/02/09 13:02:26;;;;;;;17.63;15.73;;;4.50;99.90;;;;;;5117457;28;20454;-71
2023/02/09 13:05:00;;;;;;;17.10;15.50;;;4.50;99.90;;;;;;5117741;28;20439;-71
2023/02/09 13:07:48;;;;;;;17.17;15.43;;;4.50;99.90;;;;;;5117657;28;20458;-71
2023/02/09 13:10:24;;;;;;;17.97;16.33;;;4.50;99.90;;;;;;5099184;28;20508;-71